General Aviation Weather

Text Reports

Enter one or more of the following location identifiers separated by a space:

Zip Code, Four-Character ICAO or Three-Character IATA airport codes.

METAR - Aviation Routine Weather Report
RJOW - Iwami,
Updated at 10:00 AM GMT on August 30, 2014 (7:00 PM JST):
METAR RJOW 301000Z 05006KT 020V090 9999 FEW030 SCT040 BKN/// 23/19 Q1012
TAF - Terminal Area Forecast
RJOW - Iwami,
Updated at 10:00 AM GMT on August 30, 2014 (7:00 PM JST):
No TAF is currently available for this location.
Decoded:
No decoded TAF is available.
PIREP - Pilot Weather Report
RJOW - Iwami,
Updated at 10:00 AM GMT on August 30, 2014 (7:00 PM JST):
No PIREP is currently available for this location.
AIRMET - Airmens Meteorological Information
RJOW - Iwami,
Updated at 10:00 AM GMT on August 30, 2014 (7:00 PM JST):
No AIRMET is currently available for this location.
SIGMET - Significant Meteorological Information
RJOW - Iwami,
Updated at 10:00 AM GMT on August 30, 2014 (7:00 PM JST):
No SIGMET is currently available for this location.
NOTAM - Notice to Airmen
RJOW - Iwami,
Updated at 10:00 AM GMT on August 30, 2014 (7:00 PM JST):
No NOTAM is currently available for this location.
Forecast Area
RJOW - Iwami,
Updated at 10:00 AM GMT on August 30, 2014 (7:00 PM JST):
No NOTAM is currently available for this location.
Aviation Weather Maps